createdAt,value
2023-01-29T00:00:33.878Z,0.86
2023-01-29T00:01:34.775Z,0.82
2023-01-29T00:02:33.801Z,0.84
2023-01-29T00:03:34.264Z,0.77
2023-01-29T00:04:33.572Z,0.81
2023-01-29T00:05:33.784Z,0.84
2023-01-29T00:06:33.738Z,0.81
2023-01-29T00:07:34.329Z,0.81
2023-01-29T00:08:33.799Z,0.78
2023-01-29T00:09:33.509Z,0.76
2023-01-29T00:10:33.994Z,0.81
2023-01-29T00:11:33.541Z,0.73
2023-01-29T00:12:34.157Z,0.73
2023-01-29T00:13:33.350Z,0.74
2023-01-29T00:14:34.024Z,0.78
2023-01-29T00:15:34.506Z,0.76
2023-01-29T00:16:34.165Z,0.71
2023-01-29T00:17:33.453Z,0.73
2023-01-29T00:18:33.536Z,0.81
2023-01-29T00:19:34.552Z,0.78
2023-01-29T00:20:34.595Z,0.74
2023-01-29T00:21:34.114Z,0.76
2023-01-29T00:22:33.562Z,0.85
2023-01-29T00:23:34.043Z,0.78
2023-01-29T00:24:33.402Z,0.77
2023-01-29T00:25:34.028Z,0.77
2023-01-29T00:26:33.939Z,0.84
2023-01-29T00:27:33.977Z,0.82
2023-01-29T00:28:35.144Z,0.86
2023-01-29T00:29:33.816Z,0.84
2023-01-29T00:30:35.100Z,0.86
2023-01-29T00:31:34.456Z,0.84
2023-01-29T00:32:34.965Z,0.85
2023-01-29T00:33:33.714Z,0.82
2023-01-29T00:34:34.827Z,0.84
2023-01-29T00:35:34.189Z,0.74
2023-01-29T00:36:33.811Z,0.71
2023-01-29T00:37:33.205Z,0.73
2023-01-29T00:38:33.585Z,0.77
2023-01-29T00:39:46.764Z,0.76
2023-01-29T00:40:33.727Z,0.71
2023-01-29T00:41:34.224Z,0.77
2023-01-29T00:42:33.600Z,0.78
2023-01-29T00:43:33.673Z,0.82
2023-01-29T00:44:33.622Z,0.77
2023-01-29T00:45:33.404Z,0.77
2023-01-29T00:46:33.130Z,0.81
2023-01-29T00:47:33.350Z,0.84
2023-01-29T00:48:33.407Z,0.84
2023-01-29T00:49:34.801Z,0.85
2023-01-29T00:50:33.802Z,0.78
2023-01-29T00:51:32.493Z,0.94
2023-01-29T00:52:34.316Z,0.78
2023-01-29T00:53:32.706Z,0.88
2023-01-29T00:54:33.269Z,0.91
2023-01-29T00:55:33.099Z,0.84
2023-01-29T00:56:33.347Z,0.84
2023-01-29T00:57:33.318Z,0.84
2023-01-29T00:58:34.187Z,0.88
2023-01-29T00:59:33.224Z,0.81
2023-01-29T01:00:33.325Z,0.84
2023-01-29T01:01:33.323Z,0.92
2023-01-29T01:02:33.055Z,0.86
2023-01-29T01:03:34.242Z,0.91
2023-01-29T01:04:34.783Z,0.84
2023-01-29T01:05:34.207Z,0.85
2023-01-29T01:06:33.706Z,0.85
2023-01-29T01:07:33.689Z,0.85
2023-01-29T01:08:34.578Z,0.84
2023-01-29T01:09:34.710Z,0.94
2023-01-29T01:10:35.281Z,0.85
2023-01-29T01:11:33.372Z,0.95
2023-01-29T01:12:33.855Z,0.82
2023-01-29T01:13:33.496Z,0.89
2023-01-29T01:14:34.201Z,0.88
2023-01-29T01:15:33.335Z,0.91
2023-01-29T01:16:33.844Z,0.86
2023-01-29T01:17:33.474Z,0.94
2023-01-29T01:18:34.679Z,0.86
2023-01-29T01:19:33.825Z,0.89
2023-01-29T01:20:34.121Z,0.89
2023-01-29T01:21:34.308Z,0.89
2023-01-29T01:22:33.968Z,0.92
2023-01-29T01:23:33.419Z,0.82
2023-01-29T01:24:34.204Z,0.86
2023-01-29T01:25:34.540Z,0.91
2023-01-29T01:26:34.197Z,0.85
2023-01-29T01:27:34.611Z,0.84
2023-01-29T01:28:34.731Z,0.84
2023-01-29T01:29:33.840Z,0.91
2023-01-29T01:30:34.648Z,0.86
2023-01-29T01:31:34.676Z,0.91
2023-01-29T01:32:34.618Z,0.85
2023-01-29T01:33:34.338Z,0.94
2023-01-29T01:34:33.673Z,0.88
2023-01-29T01:35:31.972Z,0.88
2023-01-29T01:36:33.517Z,0.82
2023-01-29T01:37:33.141Z,0.85
2023-01-29T01:38:32.744Z,0.85
2023-01-29T01:39:32.545Z,0.88
2023-01-29T01:40:32.290Z,0.84
2023-01-29T01:41:32.345Z,0.81
2023-01-29T01:42:32.200Z,0.88
2023-01-29T01:43:32.302Z,0.85
2023-01-29T01:44:33.098Z,0.78
2023-01-29T01:45:32.391Z,0.84
2023-01-29T01:46:31.676Z,0.77
2023-01-29T01:47:31.597Z,0.89
2023-01-29T01:48:31.475Z,0.84
2023-01-29T01:49:31.600Z,0.77
2023-01-29T01:50:31.733Z,0.85
2023-01-29T01:51:31.489Z,0.77
2023-01-29T01:52:31.707Z,0.81
2023-01-29T01:53:31.467Z,0.73
2023-01-29T01:54:31.377Z,0.71
2023-01-29T01:55:31.400Z,0.66
2023-01-29T01:56:32.018Z,0.64
2023-01-29T01:57:31.399Z,0.59
2023-01-29T01:58:31.285Z,0.59
2023-01-29T01:59:31.487Z,0.59
2023-01-29T02:00:31.445Z,0.59
2023-01-29T02:01:33.212Z,0.51
2023-01-29T02:02:31.317Z,0.56
2023-01-29T02:03:31.755Z,0.40
2023-01-29T02:04:32.205Z,0.49
2023-01-29T02:05:31.424Z,0.48
2023-01-29T02:06:31.369Z,0.55
2023-01-29T02:07:31.821Z,0.44
2023-01-29T02:08:31.273Z,0.47
2023-01-29T02:09:31.289Z,0.44
2023-01-29T02:10:31.787Z,0.36
2023-01-29T02:11:31.293Z,0.31
2023-01-29T02:12:31.293Z,0.37
2023-01-29T02:13:31.798Z,0.31
2023-01-29T02:14:31.692Z,0.27
2023-01-29T02:15:32.276Z,0.33
2023-01-29T02:16:32.762Z,0.30
2023-01-29T02:17:31.072Z,0.12
2023-01-29T02:18:31.544Z,0.15
2023-01-29T02:19:30.908Z,0.13
2023-01-29T02:20:30.875Z,0.13
2023-01-29T02:21:30.949Z,0.05
2023-01-29T02:22:31.434Z,0.05
2023-01-29T02:23:31.462Z,0.01
2023-01-29T02:24:31.526Z,-0.12
2023-01-29T02:25:32.770Z,-0.13
2023-01-29T02:26:32.275Z,-0.13
2023-01-29T02:27:31.468Z,-0.23
2023-01-29T02:28:31.015Z,-0.24
2023-01-29T02:29:30.514Z,-0.23
2023-01-29T02:30:30.498Z,-0.26
2023-01-29T02:31:30.929Z,-0.33
2023-01-29T02:32:30.411Z,-0.44
2023-01-29T02:33:30.584Z,-0.41
2023-01-29T02:34:30.502Z,-0.42
2023-01-29T02:35:31.124Z,-0.45
2023-01-29T02:36:31.174Z,-0.59
2023-01-29T02:37:30.605Z,-0.62
2023-01-29T02:38:30.524Z,-0.67
2023-01-29T02:39:30.464Z,-0.67
2023-01-29T02:40:30.583Z,-0.70
2023-01-29T02:41:30.477Z,-0.75
2023-01-29T02:42:30.650Z,-0.74
2023-01-29T02:43:30.439Z,-0.74
2023-01-29T02:44:30.366Z,-0.82
2023-01-29T02:45:30.596Z,-0.91
2023-01-29T02:46:31.150Z,-0.78
2023-01-29T02:47:31.014Z,-0.85
2023-01-29T02:48:31.408Z,-0.81
2023-01-29T02:49:30.298Z,-0.81
2023-01-29T02:50:30.484Z,-0.80
2023-01-29T02:51:30.988Z,-0.81
2023-01-29T02:52:31.790Z,-1.06
2023-01-29T02:53:30.207Z,-1.04
2023-01-29T02:54:30.185Z,-1.04
2023-01-29T02:55:30.873Z,-1.07
2023-01-29T02:56:31.459Z,-1.09
2023-01-29T02:57:31.261Z,-1.06
2023-01-29T02:58:30.667Z,-1.17
2023-01-29T02:59:30.413Z,-1.07
2023-01-29T03:00:31.367Z,-1.09
2023-01-29T03:01:30.261Z,-1.12
2023-01-29T03:02:32.413Z,-1.14
2023-01-29T03:03:32.259Z,-1.18
2023-01-29T03:04:31.643Z,-1.21
2023-01-29T03:05:30.518Z,-1.22
2023-01-29T03:06:32.180Z,-1.21
2023-01-29T03:07:30.004Z,-1.25
2023-01-29T03:08:30.647Z,-1.30
2023-01-29T03:09:30.732Z,-1.29
2023-01-29T03:10:31.262Z,-1.17
2023-01-29T03:11:30.035Z,-1.18
2023-01-29T03:12:31.577Z,-1.15
2023-01-29T03:13:31.718Z,-0.99
2023-01-29T03:14:30.471Z,-1.06
2023-01-29T03:15:31.570Z,-1.04
2023-01-29T03:16:29.957Z,-1.01
2023-01-29T03:17:30.150Z,-0.97
2023-01-29T03:18:30.107Z,-0.89
2023-01-29T03:19:30.742Z,-0.91
2023-01-29T03:20:29.951Z,-0.87
2023-01-29T03:21:29.738Z,-0.80
2023-01-29T03:22:29.515Z,-0.75
2023-01-29T03:23:29.365Z,-0.69
2023-01-29T03:24:29.503Z,-0.77
2023-01-29T03:25:29.543Z,-0.70
2023-01-29T03:26:29.480Z,-0.60
2023-01-29T03:27:29.627Z,-0.62
2023-01-29T03:28:29.558Z,-0.57
2023-01-29T03:29:29.570Z,-0.62
2023-01-29T03:30:29.385Z,-0.57
2023-01-29T03:31:29.284Z,-0.53
2023-01-29T03:32:29.406Z,-0.54
2023-01-29T03:33:29.332Z,-0.49
2023-01-29T03:34:29.433Z,-0.39
2023-01-29T03:35:29.688Z,-0.41
2023-01-29T03:36:29.439Z,-0.38
2023-01-29T03:37:29.291Z,-0.42
2023-01-29T03:38:29.179Z,-0.42
2023-01-29T03:39:29.164Z,-0.33
2023-01-29T03:40:29.643Z,-0.39
2023-01-29T03:41:30.209Z,-0.41
2023-01-29T03:42:28.945Z,-0.35
2023-01-29T03:43:31.843Z,-0.33
2023-01-29T03:44:30.299Z,-0.33
2023-01-29T03:45:30.318Z,-0.44
2023-01-29T03:46:30.306Z,-0.42
2023-01-29T03:47:29.864Z,-0.33
2023-01-29T03:48:29.088Z,-0.31
2023-01-29T03:49:29.457Z,-0.24
2023-01-29T03:50:29.186Z,-0.21
2023-01-29T03:51:28.993Z,-0.26
2023-01-29T03:52:29.147Z,-0.21
2023-01-29T03:53:29.127Z,-0.30
2023-01-29T03:54:29.401Z,-0.28
2023-01-29T03:55:28.936Z,-0.23
2023-01-29T03:56:28.900Z,-0.24
2023-01-29T03:57:29.053Z,-0.18
2023-01-29T03:58:28.957Z,-0.23
2023-01-29T03:59:29.025Z,-0.12
2023-01-29T04:00:28.711Z,-0.23
2023-01-29T04:01:29.941Z,-0.12
2023-01-29T04:02:31.846Z,-0.17
2023-01-29T04:03:29.449Z,-0.12
2023-01-29T04:04:28.668Z,-0.10
2023-01-29T04:05:29.372Z,-0.18
2023-01-29T04:06:28.612Z,-0.13
2023-01-29T04:07:29.285Z,-0.09
2023-01-29T04:08:28.659Z,-0.12
2023-01-29T04:09:29.186Z,-0.12
2023-01-29T04:10:28.736Z,-0.15
2023-01-29T04:11:28.497Z,-0.30
2023-01-29T04:12:28.288Z,-0.24
2023-01-29T04:13:28.512Z,-0.23
2023-01-29T04:14:28.322Z,-0.33
2023-01-29T04:15:28.386Z,-0.33
2023-01-29T04:16:28.560Z,-0.33
2023-01-29T04:17:28.420Z,-0.30
2023-01-29T04:18:28.105Z,-0.36
2023-01-29T04:19:28.669Z,-0.39
2023-01-29T04:20:28.286Z,-0.46
2023-01-29T04:21:28.390Z,-0.44
2023-01-29T04:22:28.323Z,-0.62
2023-01-29T04:23:28.388Z,-0.45
2023-01-29T04:24:29.079Z,-0.48
2023-01-29T04:25:28.116Z,-0.46
2023-01-29T04:26:28.277Z,-0.51
2023-01-29T04:27:28.204Z,-0.54
2023-01-29T04:28:28.083Z,-0.51
2023-01-29T04:29:30.056Z,-0.53
2023-01-29T04:30:28.450Z,-0.46
2023-01-29T04:31:28.237Z,-0.54
2023-01-29T04:32:28.275Z,-0.59
2023-01-29T04:33:28.564Z,-0.57
2023-01-29T04:34:28.038Z,-0.64
2023-01-29T04:35:28.775Z,-0.56
2023-01-29T04:36:27.961Z,-0.62
2023-01-29T04:37:29.040Z,-0.46
2023-01-29T04:38:28.701Z,-0.51
2023-01-29T04:39:29.040Z,-0.49
2023-01-29T04:40:27.960Z,-0.51
2023-01-29T04:41:29.256Z,-0.45
2023-01-29T04:42:28.004Z,-0.51
2023-01-29T04:43:27.671Z,-0.49
2023-01-29T04:44:28.781Z,-0.62
2023-01-29T04:45:27.864Z,-0.63
2023-01-29T04:46:27.973Z,-0.60
2023-01-29T04:47:27.696Z,-0.64
2023-01-29T04:48:27.776Z,-0.69
2023-01-29T04:49:28.217Z,-0.77
2023-01-29T04:50:27.803Z,-0.82
2023-01-29T04:51:27.511Z,-0.75
2023-01-29T04:52:27.681Z,-0.85
2023-01-29T04:53:27.688Z,-0.84
2023-01-29T04:54:27.464Z,-0.80
2023-01-29T04:55:27.439Z,-0.77
2023-01-29T04:56:27.385Z,-0.69
2023-01-29T04:57:27.422Z,-0.72
2023-01-29T04:58:27.555Z,-0.70
2023-01-29T04:59:27.402Z,-0.78
2023-01-29T05:00:27.371Z,-0.80
2023-01-29T05:01:27.978Z,-0.78
2023-01-29T05:02:27.356Z,-0.81
2023-01-29T05:03:27.401Z,-0.84
2023-01-29T05:04:28.221Z,-0.75
2023-01-29T05:05:27.516Z,-0.81
2023-01-29T05:06:27.371Z,-0.78
2023-01-29T05:07:27.318Z,-0.78
2023-01-29T05:10:12.202Z,-0.77
2023-01-29T05:11:12.149Z,-0.78
2023-01-29T05:13:20.508Z,-0.78
2023-01-29T05:14:21.024Z,-0.75
2023-01-29T05:16:26.822Z,-0.59
2023-01-29T05:17:26.765Z,-0.59
2023-01-29T05:19:34.232Z,-0.62
2023-01-29T05:22:01.865Z,-0.57
2023-01-29T05:23:01.787Z,-0.54
2023-01-29T05:24:01.783Z,-0.49
2023-01-29T05:25:01.779Z,-0.45
2023-01-29T05:26:01.747Z,-0.44
2023-01-29T05:27:01.929Z,-0.41
2023-01-29T05:28:01.743Z,-0.41
2023-01-29T05:29:01.765Z,-0.35
2023-01-29T05:30:01.791Z,-0.27
2023-01-29T05:31:01.887Z,-0.38
2023-01-29T05:32:01.613Z,-0.24
2023-01-29T05:33:01.575Z,-0.35
2023-01-29T05:34:01.698Z,-0.26
2023-01-29T05:35:01.805Z,-0.17
2023-01-29T05:36:01.575Z,-0.23
2023-01-29T05:37:01.480Z,-0.18
2023-01-29T05:38:01.772Z,-0.18
2023-01-29T05:39:01.558Z,-0.15
2023-01-29T05:40:03.658Z,-0.09
2023-01-29T05:41:04.012Z,-0.13
2023-01-29T05:42:04.471Z,-0.09
2023-01-29T05:43:03.622Z,-0.09
2023-01-29T05:44:04.400Z,-0.10
2023-01-29T05:45:03.716Z,-0.13
2023-01-29T05:46:03.985Z,-0.05
2023-01-29T05:47:02.643Z,-0.15
2023-01-29T05:48:03.528Z,-0.10
2023-01-29T05:49:04.176Z,-0.10
2023-01-29T05:50:03.483Z,-0.02
2023-01-29T05:51:02.242Z,-0.06
2023-01-29T05:52:01.593Z,-0.05
2023-01-29T05:53:01.436Z,-0.07
2023-01-29T05:54:01.420Z,-0.03
2023-01-29T05:55:01.348Z,0.06
2023-01-29T05:56:22.359Z,0.01
2023-01-29T05:57:01.401Z,0.06
2023-01-29T05:58:05.609Z,0.06
2023-01-29T05:59:01.624Z,0.02
2023-01-29T06:00:01.412Z,0.02
2023-01-29T06:01:01.451Z,-0.02
2023-01-29T06:02:03.565Z,0.02
2023-01-29T06:03:01.418Z,0.09
2023-01-29T06:04:01.208Z,0.13
2023-01-29T06:05:01.274Z,0.08
2023-01-29T06:06:01.169Z,0.00
2023-01-29T06:07:01.176Z,0.09
2023-01-29T06:08:01.118Z,0.08
2023-01-29T06:09:01.130Z,0.06
2023-01-29T06:10:01.748Z,0.09
2023-01-29T06:11:01.758Z,0.06
2023-01-29T06:12:01.257Z,0.09
2023-01-29T06:13:01.712Z,0.05
2023-01-29T06:14:01.195Z,0.02
2023-01-29T06:15:01.731Z,0.06
2023-01-29T06:16:01.109Z,0.02
2023-01-29T06:17:01.227Z,0.02
2023-01-29T06:18:00.843Z,0.09
2023-01-29T06:19:02.017Z,0.02
2023-01-29T06:20:01.594Z,0.02
2023-01-29T06:21:01.066Z,0.06
2023-01-29T06:22:00.916Z,0.06
2023-01-29T06:23:00.980Z,0.05
2023-01-29T06:24:00.821Z,0.09
2023-01-29T06:25:00.878Z,0.09
2023-01-29T06:26:01.242Z,0.05
2023-01-29T06:27:00.784Z,0.11
2023-01-29T06:28:01.336Z,0.05
2023-01-29T06:29:01.290Z,0.11
2023-01-29T06:30:04.589Z,0.09
2023-01-29T06:31:11.520Z,0.12
2023-01-29T06:32:00.767Z,0.09
2023-01-29T06:33:00.730Z,0.08
2023-01-29T06:34:02.465Z,0.11
2023-01-29T06:35:02.213Z,-0.02
2023-01-29T06:36:02.957Z,0.02
2023-01-29T06:37:02.530Z,-0.03
2023-01-29T06:38:03.220Z,-0.06
2023-01-29T06:39:03.547Z,-0.02
2023-01-29T06:40:02.146Z,-0.06
2023-01-29T06:41:03.178Z,-0.06
2023-01-29T06:42:02.129Z,-0.12
2023-01-29T06:43:03.018Z,-0.10
2023-01-29T06:44:02.392Z,-0.10
2023-01-29T06:45:03.026Z,-0.06
2023-01-29T06:46:02.216Z,0.02
2023-01-29T06:47:02.614Z,0.01
2023-01-29T06:48:01.746Z,0.01
2023-01-29T06:49:02.004Z,0.09
2023-01-29T06:50:02.211Z,0.09
2023-01-29T06:51:00.918Z,0.05
2023-01-29T06:52:02.146Z,0.05
2023-01-29T06:53:01.228Z,0.05
2023-01-29T06:54:02.001Z,0.12
2023-01-29T06:55:00.134Z,0.11
2023-01-29T06:56:01.734Z,0.11
2023-01-29T06:56:59.853Z,0.05
2023-01-29T06:58:02.037Z,0.15
2023-01-29T06:59:01.951Z,0.12
2023-01-29T07:00:00.143Z,0.09
2023-01-29T07:01:00.106Z,0.12
2023-01-29T07:02:00.358Z,0.11
2023-01-29T07:03:02.669Z,0.09
2023-01-29T07:04:01.711Z,0.12
2023-01-29T07:05:01.069Z,0.13
2023-01-29T07:05:59.679Z,0.16
2023-01-29T07:06:59.969Z,0.13
2023-01-29T07:07:59.551Z,0.15
2023-01-29T07:08:59.554Z,0.15
2023-01-29T07:09:59.507Z,0.20
2023-01-29T07:10:59.487Z,0.08
2023-01-29T07:11:59.468Z,0.19
2023-01-29T07:12:59.455Z,0.19
2023-01-29T07:13:59.425Z,0.13
2023-01-29T07:14:59.448Z,0.09
2023-01-29T07:15:59.459Z,0.13
2023-01-29T07:16:59.382Z,0.15
2023-01-29T07:17:59.359Z,0.23
2023-01-29T07:18:59.331Z,0.16
2023-01-29T07:19:59.296Z,0.16
2023-01-29T07:20:59.315Z,0.19
2023-01-29T07:21:59.301Z,0.18
2023-01-29T07:22:59.245Z,0.20
2023-01-29T07:23:59.223Z,0.24
2023-01-29T07:24:59.197Z,0.24
2023-01-29T07:25:59.321Z,0.29
2023-01-29T07:26:59.226Z,0.19
2023-01-29T07:28:00.870Z,0.34
2023-01-29T07:29:00.212Z,0.34
2023-01-29T07:29:59.415Z,0.36
2023-01-29T07:30:59.470Z,0.44
2023-01-29T07:31:59.217Z,0.45
2023-01-29T07:32:59.039Z,0.44
2023-01-29T07:34:08.310Z,0.47
2023-01-29T07:36:18.022Z,0.39
2023-01-29T07:37:04.671Z,0.45
2023-01-29T07:39:11.604Z,0.47
2023-01-29T07:40:11.560Z,0.44
2023-01-29T07:42:33.044Z,0.45
2023-01-29T07:43:22.543Z,0.59
2023-01-29T07:46:19.873Z,0.66
2023-01-29T07:47:11.341Z,0.63
2023-01-29T07:48:09.323Z,0.63
2023-01-29T07:49:06.504Z,0.64
2023-01-29T07:50:06.358Z,0.63
2023-01-29T07:51:06.482Z,0.71
2023-01-29T07:52:06.897Z,0.68
2023-01-29T07:53:29.881Z,0.76
2023-01-29T07:54:06.419Z,0.81
2023-01-29T07:55:06.223Z,0.84
2023-01-29T07:56:06.811Z,0.78
2023-01-29T07:57:06.828Z,0.82
2023-01-29T07:58:06.324Z,0.82
2023-01-29T07:59:06.115Z,0.89
2023-01-29T08:00:06.629Z,0.88
2023-01-29T08:01:06.608Z,0.86
2023-01-29T08:03:57.734Z,1.00
2023-01-29T08:04:54.797Z,1.10
2023-01-29T08:05:52.053Z,1.16
2023-01-29T08:06:52.061Z,1.24
2023-01-29T08:09:36.214Z,1.52
2023-01-29T08:11:54.460Z,1.57
2023-01-29T08:12:54.363Z,1.58
2023-01-29T08:15:01.824Z,1.68
2023-01-29T08:17:56.215Z,1.85
2023-01-29T08:18:39.450Z,1.93
2023-01-29T08:19:39.430Z,1.95
2023-01-29T08:20:40.282Z,1.86
2023-01-29T08:21:39.435Z,1.88
2023-01-29T08:22:39.392Z,1.92
2023-01-29T08:23:41.578Z,1.89
2023-01-29T08:24:53.363Z,2.01
2023-01-29T08:25:40.620Z,2.01
2023-01-29T08:26:39.651Z,2.14
2023-01-29T08:27:40.547Z,2.05
2023-01-29T08:28:39.854Z,2.05
2023-01-29T08:29:41.051Z,2.03
2023-01-29T08:30:39.713Z,1.98
2023-01-29T08:31:41.493Z,1.93
2023-01-29T08:32:41.570Z,1.92
2023-01-29T08:33:41.007Z,1.88
2023-01-29T08:34:41.636Z,1.92
2023-01-29T08:35:41.476Z,1.89
2023-01-29T08:36:41.125Z,2.03
2023-01-29T08:37:41.092Z,2.15
2023-01-29T08:38:41.442Z,2.23
2023-01-29T08:40:41.310Z,2.51
2023-01-29T08:41:40.482Z,2.51
2023-01-29T08:42:41.630Z,2.75
2023-01-29T08:43:41.120Z,2.88
2023-01-29T08:44:43.631Z,3.06
2023-01-29T08:45:41.097Z,3.15
2023-01-29T08:46:39.367Z,3.24
2023-01-29T08:47:39.831Z,3.30
2023-01-29T08:48:41.145Z,3.52
2023-01-29T08:49:42.078Z,3.61
2023-01-29T08:50:41.466Z,3.71
2023-01-29T08:51:40.107Z,3.73
2023-01-29T08:52:39.879Z,3.88
2023-01-29T08:53:40.297Z,3.85
2023-01-29T08:54:40.082Z,4.06
2023-01-29T08:55:40.041Z,4.22
2023-01-29T08:56:39.146Z,4.40
2023-01-29T08:57:39.351Z,4.53
2023-01-29T08:58:41.016Z,4.64
2023-01-29T08:59:41.036Z,4.66
2023-01-29T09:00:41.931Z,4.68
2023-01-29T09:01:41.003Z,4.64
2023-01-29T09:02:39.637Z,4.61
2023-01-29T09:03:40.747Z,4.58
2023-01-29T09:04:39.443Z,4.50
2023-01-29T09:05:39.556Z,4.49
2023-01-29T09:06:40.614Z,4.50
2023-01-29T09:07:39.545Z,4.39
2023-01-29T09:08:41.606Z,4.48
2023-01-29T09:09:39.491Z,4.61
2023-01-29T09:10:39.235Z,4.63
2023-01-29T09:11:40.543Z,4.67
2023-01-29T09:12:40.271Z,4.87
2023-01-29T09:13:39.932Z,4.98
2023-01-29T09:14:40.598Z,5.00
2023-01-29T09:15:39.423Z,4.94
2023-01-29T09:16:40.655Z,4.86
2023-01-29T09:17:40.969Z,4.74
2023-01-29T09:18:39.653Z,4.76
2023-01-29T09:19:39.788Z,4.70
2023-01-29T09:20:40.583Z,4.56
2023-01-29T09:21:41.455Z,4.45
2023-01-29T09:22:38.404Z,4.24
2023-01-29T09:23:39.561Z,4.21
2023-01-29T09:24:41.156Z,4.06
2023-01-29T09:25:38.551Z,3.88
2023-01-29T09:26:40.194Z,3.77
2023-01-29T09:27:41.058Z,3.77
2023-01-29T09:28:38.856Z,3.76
2023-01-29T09:29:39.060Z,3.61
2023-01-29T09:30:40.605Z,3.58
2023-01-29T09:31:40.080Z,3.41
2023-01-29T09:32:52.557Z,3.31
2023-01-29T09:33:40.176Z,3.22
2023-01-29T09:34:40.093Z,3.13
2023-01-29T09:35:39.454Z,3.13
2023-01-29T09:36:38.919Z,3.09
2023-01-29T09:37:40.307Z,3.08
2023-01-29T09:38:38.313Z,3.03
2023-01-29T09:39:39.285Z,2.87
2023-01-29T09:40:40.487Z,2.87
2023-01-29T09:41:40.585Z,2.93
2023-01-29T09:42:39.581Z,3.00
2023-01-29T09:43:40.126Z,3.03
2023-01-29T09:44:39.100Z,3.00
2023-01-29T09:45:38.660Z,3.01
2023-01-29T09:46:40.043Z,3.03
2023-01-29T09:47:40.043Z,3.01
2023-01-29T09:48:39.587Z,3.01
2023-01-29T09:49:38.236Z,3.00
2023-01-29T09:50:41.217Z,3.03
2023-01-29T09:51:40.605Z,3.01
2023-01-29T09:52:39.073Z,3.03
2023-01-29T09:53:38.528Z,3.05
2023-01-29T09:54:40.502Z,3.11
2023-01-29T09:55:38.056Z,3.16
2023-01-29T09:56:40.103Z,3.21
2023-01-29T09:57:38.597Z,3.24
2023-01-29T09:58:40.421Z,3.29
2023-01-29T09:59:39.150Z,3.27
2023-01-29T10:00:38.730Z,3.37
2023-01-29T10:01:39.295Z,3.34
2023-01-29T10:02:38.370Z,3.36
2023-01-29T10:03:39.983Z,3.31
2023-01-29T10:04:39.425Z,3.33
2023-01-29T10:05:38.648Z,3.33
2023-01-29T10:06:38.352Z,3.34
2023-01-29T10:07:39.362Z,3.37
2023-01-29T10:08:38.041Z,3.41
2023-01-29T10:09:37.647Z,3.34
2023-01-29T10:10:39.440Z,3.26
2023-01-29T10:11:38.584Z,3.31
2023-01-29T10:12:39.223Z,3.31
2023-01-29T10:13:39.403Z,3.26
2023-01-29T10:14:38.175Z,3.26
2023-01-29T10:15:38.473Z,3.29
2023-01-29T10:16:39.180Z,3.40
2023-01-29T10:17:39.047Z,3.46
2023-01-29T10:18:38.145Z,3.58
2023-01-29T10:19:39.556Z,3.73
2023-01-29T10:20:40.216Z,3.76
2023-01-29T10:21:39.483Z,3.84
2023-01-29T10:22:39.600Z,4.03
2023-01-29T10:23:37.978Z,4.13
2023-01-29T10:24:39.716Z,4.31
2023-01-29T10:25:37.358Z,4.40
2023-01-29T10:26:37.382Z,4.57
2023-01-29T10:27:38.466Z,4.75
2023-01-29T10:28:37.271Z,4.89
2023-01-29T10:29:38.039Z,4.87
2023-01-29T10:30:38.637Z,5.04
2023-01-29T10:31:38.665Z,5.22
2023-01-29T10:32:37.778Z,5.64
2023-01-29T10:33:49.344Z,6.13
2023-01-29T10:34:40.446Z,6.62
2023-01-29T10:35:37.720Z,6.87
2023-01-29T10:36:38.629Z,7.08
2023-01-29T10:37:37.145Z,7.47
2023-01-29T10:38:39.059Z,7.93
2023-01-29T10:39:38.506Z,8.23
2023-01-29T10:40:37.617Z,8.57
2023-01-29T10:41:39.136Z,9.00
2023-01-29T10:42:38.574Z,9.42
2023-01-29T10:43:39.011Z,9.44
2023-01-29T10:44:39.281Z,9.54
2023-01-29T10:45:39.774Z,9.55
2023-01-29T10:46:37.057Z,9.54
2023-01-29T10:47:37.621Z,9.51
2023-01-29T10:48:36.927Z,9.55
2023-01-29T10:49:38.613Z,9.55
2023-01-29T10:50:37.353Z,9.47
2023-01-29T10:51:38.678Z,9.56
2023-01-29T10:52:37.687Z,9.76
2023-01-29T10:53:37.615Z,10.15
2023-01-29T10:54:37.314Z,10.17
2023-01-29T10:55:37.314Z,10.00
2023-01-29T10:56:37.440Z,9.73
2023-01-29T10:57:37.857Z,9.51
2023-01-29T10:58:36.762Z,9.29
2023-01-29T10:59:38.807Z,9.02
2023-01-29T11:00:36.907Z,8.92
2023-01-29T11:01:37.602Z,8.77
2023-01-29T11:02:37.038Z,8.61
2023-01-29T11:03:38.693Z,8.50
2023-01-29T11:04:38.466Z,8.46
2023-01-29T11:05:37.008Z,8.28
2023-01-29T11:06:36.527Z,8.28
2023-01-29T11:07:38.081Z,8.34
2023-01-29T11:08:37.560Z,8.36
2023-01-29T11:09:36.776Z,8.50
2023-01-29T11:10:37.529Z,8.56
2023-01-29T11:11:36.462Z,8.57
2023-01-29T11:12:38.137Z,8.68
2023-01-29T11:13:37.343Z,8.74
2023-01-29T11:14:36.397Z,8.82
2023-01-29T11:15:36.193Z,8.89
2023-01-29T11:16:36.453Z,8.82
2023-01-29T11:17:36.419Z,8.92
2023-01-29T11:18:37.310Z,8.89
2023-01-29T11:19:36.287Z,9.18
2023-01-29T11:20:36.691Z,9.48
2023-01-29T11:21:36.327Z,9.70
2023-01-29T11:22:36.766Z,10.18
2023-01-29T11:23:36.128Z,10.65
2023-01-29T11:24:36.658Z,11.23
2023-01-29T11:25:36.237Z,11.63
2023-01-29T11:26:36.243Z,11.60
2023-01-29T11:27:36.728Z,11.56
2023-01-29T11:28:36.674Z,11.44
2023-01-29T11:29:36.055Z,11.18
2023-01-29T11:30:37.368Z,11.37
2023-01-29T11:31:36.667Z,12.26
2023-01-29T11:32:37.528Z,13.68
2023-01-29T11:33:37.061Z,14.86
2023-01-29T11:34:37.170Z,15.37
2023-01-29T11:35:36.155Z,15.52
2023-01-29T11:36:36.111Z,15.33
2023-01-29T11:37:36.630Z,15.27
2023-01-29T11:38:36.037Z,15.02
2023-01-29T11:39:36.655Z,14.63
2023-01-29T11:40:37.499Z,14.08
2023-01-29T11:41:36.382Z,13.46
2023-01-29T11:42:35.833Z,13.01
2023-01-29T11:43:35.775Z,12.58
2023-01-29T11:44:36.050Z,12.47
2023-01-29T11:45:35.901Z,12.54
2023-01-29T11:46:35.898Z,12.78
2023-01-29T11:47:35.916Z,13.09
2023-01-29T11:48:36.300Z,13.68
2023-01-29T11:49:36.434Z,14.52
2023-01-29T11:50:36.194Z,15.80
2023-01-29T11:51:35.859Z,17.32
2023-01-29T11:52:36.668Z,18.67
2023-01-29T11:53:36.554Z,19.79
2023-01-29T11:54:35.758Z,19.92
2023-01-29T11:55:49.896Z,19.52
2023-01-29T11:56:35.503Z,19.16
2023-01-29T11:57:37.179Z,18.71
2023-01-29T11:58:35.669Z,18.33
2023-01-29T11:59:35.501Z,17.31
2023-01-29T12:00:35.605Z,16.59
2023-01-29T12:01:35.612Z,15.99
2023-01-29T12:02:36.209Z,15.87
2023-01-29T12:03:35.667Z,15.55
2023-01-29T12:04:35.649Z,15.52
2023-01-29T12:05:35.517Z,15.25
2023-01-29T12:06:35.671Z,15.00
2023-01-29T12:07:35.540Z,14.56
2023-01-29T12:08:35.959Z,14.31
2023-01-29T12:09:35.471Z,14.33
2023-01-29T12:10:35.741Z,14.36
2023-01-29T12:11:35.990Z,14.05
2023-01-29T12:12:35.582Z,13.83
2023-01-29T12:13:35.439Z,13.49
2023-01-29T12:14:36.109Z,13.17
2023-01-29T12:15:35.217Z,13.05
2023-01-29T12:16:35.476Z,12.90
2023-01-29T12:17:35.768Z,12.86
2023-01-29T12:18:35.998Z,12.78
2023-01-29T12:19:36.002Z,12.66
2023-01-29T12:20:35.355Z,12.54
2023-01-29T12:21:35.781Z,12.05
2023-01-29T12:22:35.092Z,11.63
2023-01-29T12:23:35.255Z,11.23
2023-01-29T12:24:35.145Z,10.69
2023-01-29T12:25:35.780Z,10.71
2023-01-29T12:26:35.943Z,10.87
2023-01-29T12:27:35.352Z,10.84
2023-01-29T12:28:35.177Z,10.76
2023-01-29T12:29:35.252Z,10.57
2023-01-29T12:30:35.272Z,10.48
2023-01-29T12:31:35.216Z,10.43
2023-01-29T12:32:36.213Z,10.51
2023-01-29T12:33:35.215Z,10.59
2023-01-29T12:34:35.258Z,10.75
2023-01-29T12:35:35.153Z,10.80
2023-01-29T12:36:34.845Z,10.84
2023-01-29T12:37:35.083Z,10.97
2023-01-29T12:38:35.549Z,10.90
2023-01-29T12:39:35.142Z,10.72
2023-01-29T12:40:35.139Z,10.65
2023-01-29T12:41:34.927Z,10.53
2023-01-29T12:42:35.099Z,10.51
2023-01-29T12:43:36.382Z,10.31
2023-01-29T12:44:35.284Z,10.00
2023-01-29T12:45:34.687Z,9.82
2023-01-29T12:46:34.712Z,9.67
2023-01-29T12:47:34.619Z,9.30
2023-01-29T12:48:34.584Z,9.02
2023-01-29T12:49:34.723Z,8.74
2023-01-29T12:50:34.674Z,8.66
2023-01-29T12:51:34.543Z,8.57
2023-01-29T12:52:34.627Z,8.57
2023-01-29T12:53:34.505Z,8.61
2023-01-29T12:54:34.510Z,8.60
2023-01-29T12:55:34.500Z,8.54
2023-01-29T12:56:34.494Z,8.56
2023-01-29T12:57:34.472Z,8.56
2023-01-29T12:58:34.420Z,8.42
2023-01-29T12:59:34.461Z,8.74
2023-01-29T13:00:34.603Z,9.05
2023-01-29T13:01:34.421Z,9.33
2023-01-29T13:02:34.356Z,9.49
2023-01-29T13:03:34.425Z,9.33
2023-01-29T13:04:34.323Z,9.21
2023-01-29T13:05:34.313Z,9.27
2023-01-29T13:06:34.299Z,9.29
2023-01-29T13:07:34.278Z,9.49
2023-01-29T13:08:34.268Z,9.54
2023-01-29T13:09:34.248Z,9.62
2023-01-29T13:10:34.246Z,10.09
2023-01-29T13:11:34.218Z,10.57
2023-01-29T13:12:34.196Z,11.05
2023-01-29T13:13:34.191Z,11.49
2023-01-29T13:14:34.165Z,11.73
2023-01-29T13:15:34.157Z,11.88
2023-01-29T13:16:34.199Z,11.88
2023-01-29T13:17:34.112Z,11.71
2023-01-29T13:18:34.099Z,11.49
2023-01-29T13:19:34.072Z,11.25
2023-01-29T13:20:34.078Z,11.02
2023-01-29T13:21:34.091Z,10.69
2023-01-29T13:22:34.022Z,10.53
2023-01-29T13:23:34.020Z,10.42
2023-01-29T13:24:33.999Z,10.13
2023-01-29T13:25:33.981Z,9.99
2023-01-29T13:26:33.997Z,9.77
2023-01-29T13:27:33.946Z,9.47